Time;durP1;ratioP1;P1;durP2;ratioP2;P2;SDS_P1;SDS_P2;PMS_P1;PMS_P2;Temp;Humidity;BMP_temperature;BMP_pressure;BME280_temperature;BME280_humidity;BME280_pressure;Samples;Min_cycle;Max_cycle;Signal;HPM_P1;HPM_P2
2023/03/19 00:00:18;;;;;;;20.25;8.10;;;;;;;6.45;100.00;95469.13;1007012;29;20025;-70
2023/03/19 00:00:49;;;;;;;18.85;9.05;;;;;;;6.45;100.00;95469.13;1006968;29;20116;-69
2023/03/19 00:01:19;;;;;;;23.83;8.30;;;;;;;6.44;100.00;95467.53;1007278;29;20024;-69
2023/03/19 00:01:50;;;;;;;13.50;7.40;;;;;;;6.44;100.00;95464.94;1019001;28;20759;-70
2023/03/19 00:02:21;;;;;;;14.07;7.97;;;;;;;6.35;100.00;95452.34;1026597;28;20473;-71
2023/03/19 00:02:51;;;;;;;18.73;7.60;;;;;;;6.45;100.00;95469.13;1017545;29;20012;-69
2023/03/19 00:03:22;;;;;;;19.35;9.05;;;;;;;6.43;100.00;95466.75;1011130;29;20020;-70
2023/03/19 00:03:52;;;;;;;22.90;7.60;;;;;;;6.41;100.00;95462.84;1007358;29;20040;-71
2023/03/19 00:04:24;;;;;;;15.98;8.93;;;;;;;6.42;100.00;95461.81;1015238;29;20119;-70
2023/03/19 00:04:54;;;;;;;14.88;8.32;;;;;;;6.27;100.00;95442.34;1015421;29;20649;-70
2023/03/19 00:05:25;;;;;;;15.35;7.95;;;;;;;6.45;100.00;95463.94;1011229;29;20353;-70
2023/03/19 00:05:56;;;;;;;15.60;8.25;;;;;;;6.44;100.00;95467.53;1011498;29;20028;-69
2023/03/19 00:06:26;;;;;;;20.80;8.40;;;;;;;6.43;100.00;95463.38;1011160;29;20028;-72
2023/03/19 00:06:57;;;;;;;13.77;7.57;;;;;;;6.35;100.00;95454.94;1019022;29;20656;-70
2023/03/19 00:07:27;;;;;;;14.60;8.27;;;;;;;6.43;100.00;95466.75;1015000;29;20088;-70
2023/03/19 00:07:58;;;;;;;17.30;8.05;;;;;;;6.43;100.00;95466.75;1014753;29;20031;-70
2023/03/19 00:08:28;;;;;;;13.02;7.82;;;;;;;6.44;100.00;95468.34;1018584;29;20028;-70
2023/03/19 00:08:59;;;;;;;19.05;7.68;;;;;;;6.42;100.00;95459.97;1018849;29;20024;-71
2023/03/19 00:09:29;;;;;;;15.90;7.70;;;;;;;6.43;100.00;95465.97;1018623;29;20083;-70
2023/03/19 00:09:59;;;;;;;17.75;7.47;;;;;;;6.44;100.00;95464.94;1014980;29;20510;-69
2023/03/19 00:10:30;;;;;;;15.50;7.60;;;;;;;6.45;100.00;95463.94;1014674;29;20309;-71
2023/03/19 00:11:08;;;;;;;17.15;8.30;;;;;;;6.45;100.00;95464.72;1018814;28;20067;-71
2023/03/19 00:11:38;;;;;;;16.80;8.55;;;;;;;6.43;100.00;95458.16;1023133;28;20505;-70
2023/03/19 00:12:09;;;;;;;18.67;8.15;;;;;;;6.48;100.00;95460.84;1025280;28;20317;-70
2023/03/19 00:12:40;;;;;;;12.65;7.32;;;;;;;6.49;100.00;95463.19;1021991;29;20113;-69
2023/03/19 00:13:10;;;;;;;19.50;7.93;;;;;;;6.41;100.00;95460.22;1026540;28;20265;-69
2023/03/19 00:13:41;;;;;;;16.10;7.70;;;;;;;6.50;100.00;95461.38;1030267;28;20030;-72
2023/03/19 00:14:11;;;;;;;16.45;7.78;;;;;;;6.41;100.00;95455.03;1026747;28;20461;-69
2023/03/19 00:14:42;;;;;;;13.55;7.35;;;;;;;6.43;100.00;95460.75;1026382;28;20093;-70
2023/03/19 00:15:14;;;;;;;17.52;7.80;;;;;;;6.44;100.00;95463.16;1022754;29;20031;-70
2023/03/19 00:15:45;;;;;;;12.65;7.43;;;;;;;6.42;100.00;95462.59;1018667;29;20020;-71
2023/03/19 00:16:15;;;;;;;17.77;7.85;;;;;;;6.42;100.00;95461.81;1018788;29;20319;-71
2023/03/19 00:16:46;;;;;;;17.42;8.02;;;;;;;6.44;100.00;95472.75;1014673;29;20774;-70
2023/03/19 00:17:16;;;;;;;12.73;7.13;;;;;;;6.44;100.00;95470.97;1014795;29;20032;-70
2023/03/19 00:17:47;;;;;;;10.90;7.07;;;;;;;6.43;100.00;95466.75;1015054;29;20072;-70
2023/03/19 00:18:17;;;;;;;17.55;8.55;;;;;;;6.43;100.00;95473.78;1014907;28;20024;-71
2023/03/19 00:18:48;;;;;;;11.57;6.88;;;;;;;6.44;100.00;95464.94;1022647;29;20527;-70
2023/03/19 00:19:22;;;;;;;11.32;6.43;;;;;;;6.41;100.00;95468.84;1018569;29;20031;-70
2023/03/19 00:19:52;;;;;;;13.57;6.57;;;;;;;6.41;100.00;95468.84;1018505;29;20059;-69
2023/03/19 00:20:23;;;;;;;10.35;6.80;;;;;;;6.41;100.00;95473.25;1022535;29;20334;-72
2023/03/19 00:20:53;;;;;;;15.45;7.10;;;;;;;6.39;100.00;95470.88;1023615;28;20031;-69
2023/03/19 00:21:24;;;;;;;10.55;6.03;;;;;;;6.33;100.00;95459.59;1026285;28;20026;-70
2023/03/19 00:21:55;;;;;;;13.88;7.03;;;;;;;6.40;100.00;95471.66;1026656;28;20102;-70
2023/03/19 00:22:26;;;;;;;11.57;6.03;;;;;;;6.40;100.00;95469.06;1026003;28;20270;-70
2023/03/19 00:22:56;;;;;;;12.38;6.80;;;;;;;6.36;100.00;95466.94;1018401;29;20071;-70
2023/03/19 00:23:27;;;;;;;16.17;6.78;;;;;;;6.40;100.00;95472.44;1014930;29;20035;-69
2023/03/19 00:24:00;;;;;;;11.43;6.80;;;;;;;6.39;100.00;95468.28;1018702;29;20421;-69
2023/03/19 00:24:31;;;;;;;16.23;6.97;;;;;;;6.38;100.00;95467.50;1011846;29;20025;-69
2023/03/19 00:25:02;;;;;;;12.30;6.32;;;;;;;6.39;100.00;95470.88;1018979;29;20267;-70
2023/03/19 00:25:32;;;;;;;13.30;7.97;;;;;;;6.40;100.00;95471.66;1010548;29;20550;-71
2023/03/19 00:26:03;;;;;;;14.80;7.28;;;;;;;6.41;100.00;95473.25;1006128;29;20277;-69
2023/03/19 00:26:34;;;;;;;13.85;7.50;;;;;;;6.41;100.00;95470.66;1009277;29;20016;-71
2023/03/19 00:27:04;;;;;;;15.95;7.47;;;;;;;6.41;100.00;95468.84;1010115;29;20028;-71
2023/03/19 00:27:36;;;;;;;11.80;6.93;;;;;;;6.40;100.00;95472.44;1018544;29;20182;-69
2023/03/19 00:28:06;;;;;;;16.20;6.85;;;;;;;6.43;100.00;95471.97;1018715;29;20074;-69
2023/03/19 00:28:37;;;;;;;11.75;7.10;;;;;;;6.36;100.00;95459.13;1014623;29;20328;-69
2023/03/19 00:29:07;;;;;;;14.48;6.78;;;;;;;6.44;100.00;95478.78;1015190;29;20100;-71
2023/03/19 00:29:38;;;;;;;13.30;7.07;;;;;;;6.45;100.00;95477.75;1018694;29;20047;-69
2023/03/19 00:30:10;;;;;;;14.77;7.00;;;;;;;6.42;100.00;95469.63;1022762;28;20023;-68
2023/03/19 00:30:40;;;;;;;15.25;7.15;;;;;;;6.44;100.00;95475.34;1030340;28;20085;-69
2023/03/19 00:31:15;;;;;;;14.75;7.43;;;;;;;6.41;100.00;95468.06;1026750;28;20273;-70
2023/03/19 00:31:46;;;;;;;13.55;7.60;;;;;;;6.42;100.00;95474.84;1018782;29;20030;-73
2023/03/19 00:32:16;;;;;;;11.23;6.45;;;;;;;6.36;100.00;95466.16;1014751;29;20279;-69
2023/03/19 00:32:47;;;;;;;11.55;6.82;;;;;;;6.41;100.00;95473.25;1014724;29;20268;-70
2023/03/19 00:33:18;;;;;;;12.52;6.55;;;;;;;6.40;100.00;95474.28;1022901;28;20090;-71
2023/03/19 00:33:49;;;;;;;11.77;6.97;;;;;;;6.39;100.00;95470.88;1028912;28;20037;-69
2023/03/19 00:34:20;;;;;;;13.55;7.10;;;;;;;6.38;100.00;95475.31;1026582;28;20281;-72
2023/03/19 00:34:50;;;;;;;13.65;6.50;;;;;;;6.38;100.00;95475.31;1022357;29;20600;-69
2023/03/19 00:35:21;;;;;;;12.05;6.60;;;;;;;6.38;100.00;95462.28;1018986;29;20020;-69
2023/03/19 00:35:52;;;;;;;11.32;6.68;;;;;;;6.39;100.00;95470.88;1018662;29;20501;-70
2023/03/19 00:36:24;;;;;;;11.75;6.85;;;;;;;6.38;100.00;95470.09;1021711;28;20102;-72
2023/03/19 00:36:55;;;;;;;12.70;6.72;;;;;;;6.34;100.00;95457.81;1026466;28;20042;-69
2023/03/19 00:37:26;;;;;;;18.20;7.43;;;;;;;6.40;100.00;95469.06;1022729;28;20716;-69
2023/03/19 00:37:56;;;;;;;13.07;6.47;;;;;;;6.36;100.00;95460.94;1026651;28;20281;-70
2023/03/19 00:38:28;;;;;;;17.17;7.05;;;;;;;6.44;100.00;95470.16;1018677;29;20016;-69
2023/03/19 00:38:58;;;;;;;12.90;7.25;;;;;;;6.44;100.00;95463.16;1014961;29;20141;-70
2023/03/19 00:39:28;;;;;;;15.65;6.97;;;;;;;6.41;100.00;95465.44;1014542;29;20342;-69
2023/03/19 00:39:59;;;;;;;13.50;7.47;;;;;;;6.40;100.00;95462.03;1010748;29;20063;-69
2023/03/19 00:40:29;;;;;;;11.45;7.55;;;;;;;6.41;100.00;95457.63;1010556;29;20033;-70
2023/03/19 00:41:01;;;;;;;12.70;6.93;;;;;;;6.49;100.00;95465.00;1012311;29;20052;-69
2023/03/19 00:41:31;;;;;;;10.90;6.47;;;;;;;6.48;100.00;95468.66;1010870;29;20025;-70
2023/03/19 00:42:01;;;;;;;8.88;6.07;;;;;;;6.47;100.00;95474.88;1014947;29;20276;-70
2023/03/19 00:42:32;;;;;;;12.40;6.55;;;;;;;6.47;100.00;95472.28;1024982;28;20034;-72
2023/03/19 00:43:02;;;;;;;12.88;6.63;;;;;;;6.47;100.00;95472.28;1026004;28;20401;-70
2023/03/19 00:43:33;;;;;;;25.45;7.22;;;;;;;6.45;100.00;95469.91;1029356;28;20125;-70
2023/03/19 00:44:05;;;;;;;16.13;6.80;;;;;;;6.46;100.00;95468.09;1021858;28;20023;-69
2023/03/19 00:44:35;;;;;;;13.88;7.05;;;;;;;6.44;100.00;95470.97;1011095;29;20077;-69
2023/03/19 00:45:06;;;;;;;14.77;6.85;;;;;;;6.42;100.00;95467.00;1011036;29;20276;-69
2023/03/19 00:45:37;;;;;;;9.63;6.03;;;;;;;6.45;100.00;95471.75;1015719;29;20040;-69
2023/03/19 00:46:07;;;;;;;16.17;6.57;;;;;;;6.47;100.00;95467.06;1022573;29;20266;-70
2023/03/19 00:46:38;;;;;;;13.57;6.68;;;;;;;6.47;100.00;95472.28;1018827;29;20055;-70
2023/03/19 00:47:08;;;;;;;14.32;6.75;;;;;;;6.46;100.00;95476.69;1022626;29;20023;-71
2023/03/19 00:47:38;;;;;;;9.77;5.60;;;;;;;6.46;100.00;95473.31;1026090;28;20026;-69
2023/03/19 00:48:09;;;;;;;12.73;5.78;;;;;;;6.46;100.00;95465.50;1014650;29;20024;-70
2023/03/19 00:48:40;;;;;;;12.07;7.03;;;;;;;6.42;100.00;95459.19;1018605;29;20027;-69
2023/03/19 00:49:10;;;;;;;12.55;6.78;;;;;;;6.48;100.00;95468.66;1020597;29;20030;-69
2023/03/19 00:49:41;;;;;;;13.60;6.05;;;;;;;6.47;100.00;95469.66;1030653;28;20049;-70
2023/03/19 00:50:11;;;;;;;12.55;6.82;;;;;;;6.46;100.00;95471.50;1018583;29;20019;-69
2023/03/19 00:50:42;;;;;;;13.05;6.82;;;;;;;6.45;100.00;95469.91;1014509;29;20024;-70
2023/03/19 00:51:12;;;;;;;12.70;6.88;;;;;;;6.44;100.00;95467.53;1014142;29;20024;-70
2023/03/19 00:51:43;;;;;;;10.15;6.40;;;;;;;6.47;100.00;95475.69;1010823;29;20035;-70
2023/03/19 00:52:13;;;;;;;13.77;6.50;;;;;;;6.48;100.00;95471.25;1018516;29;20024;-69
2023/03/19 00:52:44;;;;;;;18.75;6.95;;;;;;;6.48;100.00;95473.88;1017796;29;20019;-73
2023/03/19 00:53:15;;;;;;;14.13;6.57;;;;;;;6.45;100.00;95462.09;1014542;29;20024;-71
2023/03/19 00:53:45;;;;;;;13.25;6.70;;;;;;;6.42;100.00;95459.97;1018620;29;20016;-70
2023/03/19 00:54:16;;;;;;;10.43;5.95;;;;;;;6.49;100.00;95473.63;1026316;28;20019;-72
2023/03/19 00:54:47;;;;;;;12.23;6.85;;;;;;;6.47;100.00;95470.47;1026523;28;20031;-70
2023/03/19 00:55:17;;;;;;;11.60;6.65;;;;;;;6.47;100.00;95470.47;1018543;29;20272;-70
2023/03/19 00:55:48;;;;;;;13.95;7.18;;;;;;;6.49;100.00;95470.22;1014555;29;20020;-70
2023/03/19 00:56:18;;;;;;;11.00;6.40;;;;;;;6.47;100.00;95473.09;1014584;29;20036;-69
2023/03/19 00:56:49;;;;;;;14.55;6.65;;;;;;;6.47;100.00;95472.28;1018484;29;20030;-71
2023/03/19 00:57:19;;;;;;;13.43;6.68;;;;;;;6.43;100.00;95464.16;1010873;29;20478;-70
2023/03/19 00:57:50;;;;;;;13.32;6.63;;;;;;;6.45;100.00;95471.75;1014162;29;20474;-71
2023/03/19 00:58:20;;;;;;;13.27;6.82;;;;;;;6.51;100.00;95479.38;1016870;29;20125;-72
2023/03/19 00:58:51;;;;;;;10.65;6.40;;;;;;;6.53;100.00;95486.94;1022517;28;20019;-70
2023/03/19 00:59:21;;;;;;;13.65;6.55;;;;;;;6.44;100.00;95467.53;1030251;28;20019;-70
2023/03/19 00:59:52;;;;;;;14.48;7.25;;;;;;;6.44;100.00;95473.56;1030423;28;20030;-70
2023/03/19 01:00:23;;;;;;;14.50;6.65;;;;;;;6.42;100.00;95472.22;1026374;28;20026;-70
2023/03/19 01:00:53;;;;;;;12.80;6.38;;;;;;;6.50;100.00;95487.44;1017657;29;20024;-70
2023/03/19 01:01:25;;;;;;;11.15;5.90;;;;;;;6.49;100.00;95486.66;1017713;29;20016;-69
2023/03/19 01:02:00;;;;;;;14.05;6.60;;;;;;;6.44;100.00;95472.75;1013539;29;20059;-70
2023/03/19 01:02:31;;;;;;;11.82;6.55;;;;;;;6.51;100.00;95489.03;1014860;29;20928;-70
2023/03/19 01:03:02;;;;;;;11.57;5.43;;;;;;;6.47;100.00;95478.28;1022362;29;20278;-70
2023/03/19 01:03:33;;;;;;;10.32;5.55;;;;;;;6.52;100.00;95485.38;1022334;29;20025;-72
2023/03/19 01:04:04;;;;;;;10.38;5.80;;;;;;;6.46;100.00;95479.31;1014900;29;20276;-70
2023/03/19 01:04:34;;;;;;;9.98;5.20;;;;;;;6.48;100.00;95474.66;1010352;29;20081;-70
2023/03/19 01:05:06;;;;;;;12.30;5.65;;;;;;;6.44;100.00;95477.97;1006784;29;20410;-71
2023/03/19 01:05:37;;;;;;;9.73;5.38;;;;;;;6.50;100.00;95485.59;1010968;29;20063;-70
2023/03/19 01:06:07;;;;;;;11.40;5.82;;;;;;;6.45;100.00;95480.34;1014914;29;20287;-69
2023/03/19 01:06:38;;;;;;;9.35;5.55;;;;;;;6.49;100.00;95486.66;1018655;29;20068;-69
2023/03/19 01:07:08;;;;;;;11.88;5.78;;;;;;;6.49;100.00;95480.66;1022492;29;20512;-70
2023/03/19 01:07:39;;;;;;;12.60;5.40;;;;;;;6.48;100.00;95482.47;1018276;29;20035;-70
2023/03/19 01:08:09;;;;;;;17.08;6.15;;;;;;;6.47;100.00;95486.13;1014818;29;20032;-69
2023/03/19 01:08:40;;;;;;;10.50;5.97;;;;;;;6.50;100.00;95482.22;1014440;29;20406;-69
2023/03/19 01:09:10;;;;;;;12.45;6.00;;;;;;;6.52;100.00;95485.38;1010975;29;20455;-70
2023/03/19 01:09:41;;;;;;;11.32;6.43;;;;;;;6.53;100.00;95479.91;1014511;29;20023;-71
2023/03/19 01:10:12;;;;;;;10.50;6.07;;;;;;;6.52;100.00;95485.38;1018792;29;20035;-72
2023/03/19 01:10:43;;;;;;;12.35;6.55;;;;;;;6.44;100.00;95472.75;1014477;29;20032;-69
2023/03/19 01:11:14;;;;;;;11.40;6.40;;;;;;;6.49;100.00;95485.88;1014471;29;20028;-69
2023/03/19 01:11:44;;;;;;;11.95;5.90;;;;;;;6.50;100.00;95483.00;1006994;29;20124;-70
2023/03/19 01:12:15;;;;;;;12.18;6.43;;;;;;;6.46;100.00;95481.13;1003381;29;20029;-70
2023/03/19 01:12:45;;;;;;;16.20;6.05;;;;;;;6.47;100.00;95483.50;1009481;29;20853;-69
2023/03/19 01:13:16;;;;;;;11.93;6.40;;;;;;;6.47;100.00;95482.69;1010730;29;20016;-69
2023/03/19 01:13:46;;;;;;;11.55;6.10;;;;;;;6.41;100.00;95476.66;1010529;29;20029;-68
2023/03/19 01:14:17;;;;;;;12.00;6.43;;;;;;;6.47;100.00;95474.88;1010556;29;20024;-69
2023/03/19 01:14:47;;;;;;;14.55;6.57;;;;;;;6.48;100.00;95479.09;1016346;29;20414;-71
2023/03/19 01:15:18;;;;;;;12.45;6.72;;;;;;;6.44;100.00;95476.16;1021105;29;20023;-70
2023/03/19 01:15:50;;;;;;;11.57;6.35;;;;;;;6.38;100.00;95467.50;1018525;29;20453;-70
2023/03/19 01:16:21;;;;;;;11.23;5.65;;;;;;;6.44;100.00;95473.56;1018264;29;20517;-70
2023/03/19 01:16:51;;;;;;;13.13;6.47;;;;;;;6.37;100.00;95463.31;1018312;29;20267;-70
2023/03/19 01:17:21;;;;;;;11.05;5.85;;;;;;;6.41;100.00;95465.44;1014423;29;20047;-70
2023/03/19 01:17:52;;;;;;;11.70;6.32;;;;;;;6.49;100.00;95480.66;1008450;29;20092;-70
2023/03/19 01:18:22;;;;;;;13.07;6.32;;;;;;;6.45;100.00;95479.56;1006714;29;20021;-69
2023/03/19 01:18:53;;;;;;;14.32;6.20;;;;;;;6.44;100.00;95470.16;1006867;29;20085;-70
2023/03/19 01:19:23;;;;;;;15.13;6.22;;;;;;;6.44;100.00;95472.75;1022017;28;20587;-70
2023/03/19 01:19:54;;;;;;;14.63;6.45;;;;;;;6.45;100.00;95476.97;1022404;28;20035;-70
2023/03/19 01:20:24;;;;;;;22.27;7.30;;;;;;;6.44;100.00;95473.56;1021817;29;20405;-71
2023/03/19 01:20:55;;;;;;;18.40;6.88;;;;;;;6.43;100.00;95471.19;1022193;28;20043;-69
2023/03/19 01:21:29;;;;;;;14.27;5.90;;;;;;;6.40;100.00;95471.66;1022325;28;20508;-72
2023/03/19 01:22:00;;;;;;;14.23;5.97;;;;;;;6.43;100.00;95477.19;1018513;29;20595;-70
2023/03/19 01:22:30;;;;;;;10.55;5.90;;;;;;;6.41;100.00;95468.06;1019114;29;20278;-70
2023/03/19 01:23:01;;;;;;;13.75;6.85;;;;;;;6.41;100.00;95465.44;1016445;29;20031;-69
2023/03/19 01:23:31;;;;;;;11.68;6.03;;;;;;;6.38;100.00;95471.94;1014496;29;20020;-70
2023/03/19 01:24:02;;;;;;;9.98;6.25;;;;;;;6.36;100.00;95479.97;1018552;29;20040;-70
2023/03/19 01:24:33;;;;;;;14.60;6.53;;;;;;;6.30;100.00;95467.91;1018321;29;20036;-69
2023/03/19 01:25:04;;;;;;;12.77;6.32;;;;;;;6.36;100.00;95477.38;1018468;29;20800;-69
2023/03/19 01:25:35;;;;;;;11.85;6.05;;;;;;;6.39;100.00;95473.50;1021509;29;20706;-70
2023/03/19 01:26:06;;;;;;;14.55;6.57;;;;;;;6.42;100.00;95477.44;1022346;29;20267;-69
2023/03/19 01:26:37;;;;;;;11.55;5.82;;;;;;;6.38;100.00;95475.31;1017794;29;20868;-69
2023/03/19 01:27:07;;;;;;;12.20;5.93;;;;;;;6.35;100.00;95475.78;1014525;29;20024;-72
2023/03/19 01:27:39;;;;;;;10.57;5.93;;;;;;;6.34;100.00;95474.22;1006937;29;20276;-69
2023/03/19 01:28:09;;;;;;;13.07;6.25;;;;;;;6.30;100.00;95472.31;1010674;29;20114;-69
2023/03/19 01:28:40;;;;;;;12.52;6.97;;;;;;;6.38;100.00;95480.53;1010481;29;20352;-72
2023/03/19 01:29:10;;;;;;;12.70;6.35;;;;;;;6.38;100.00;95480.53;1008919;29;20028;-72
2023/03/19 01:29:41;;;;;;;11.43;6.25;;;;;;;6.38;100.00;95485.75;1010221;29;20044;-71
2023/03/19 01:30:11;;;;;;;17.50;6.68;;;;;;;6.36;100.00;95485.19;1014441;29;20483;-69
2023/03/19 01:30:42;;;;;;;10.00;5.32;;;;;;;6.35;100.00;95486.22;1014537;29;20530;-69
2023/03/19 01:31:12;;;;;;;12.45;6.10;;;;;;;6.36;100.00;95487.78;1018234;29;20028;-70
2023/03/19 01:31:43;;;;;;;11.18;6.38;;;;;;;6.40;100.00;95487.31;1022270;29;20019;-70
2023/03/19 01:32:13;;;;;;;12.90;5.70;;;;;;;6.32;100.00;95473.66;1019562;29;20030;-70
2023/03/19 01:32:44;;;;;;;11.68;5.95;;;;;;;6.38;100.00;95490.16;1016877;29;20035;-71
2023/03/19 01:33:14;;;;;;;11.20;5.88;;;;;;;6.44;100.00;95485.78;1018378;29;20020;-69
2023/03/19 01:33:45;;;;;;;9.82;5.90;;;;;;;6.45;100.00;95488.16;1014371;29;20741;-70
2023/03/19 01:34:15;;;;;;;10.90;5.90;;;;;;;6.45;100.00;95479.56;1015487;29;20404;-71
2023/03/19 01:34:46;;;;;;;12.07;6.03;;;;;;;6.49;100.00;95480.66;1009376;29;20028;-72
2023/03/19 01:35:17;;;;;;;10.60;5.68;;;;;;;6.61;100.00;95487.31;1013470;29;20032;-72
2023/03/19 01:35:48;;;;;;;13.38;6.03;;;;;;;6.60;100.00;95487.53;1005837;29;20695;-70
2023/03/19 01:36:18;;;;;;;14.05;5.75;;;;;;;6.60;100.00;95487.53;1006777;29;20021;-70
2023/03/19 01:36:49;;;;;;;13.32;6.18;;;;;;;6.57;100.00;95485.41;1010508;29;20024;-69
2023/03/19 01:37:19;;;;;;;9.95;5.85;;;;;;;6.53;100.00;95486.94;1016984;29;20046;-70
2023/03/19 01:37:51;;;;;;;14.88;6.68;;;;;;;6.56;100.00;95491.69;1016818;29;20453;-69
2023/03/19 01:38:21;;;;;;;11.80;5.47;;;;;;;6.55;100.00;95490.09;1009585;29;20085;-70
2023/03/19 01:38:52;;;;;;;12.65;5.63;;;;;;;6.53;100.00;95486.94;1010569;29;20280;-70
2023/03/19 01:39:22;;;;;;;10.65;6.15;;;;;;;6.64;100.00;95495.66;1012208;29;20021;-70
2023/03/19 01:39:52;;;;;;;10.48;6.65;;;;;;;6.71;100.00;95494.47;1014174;29;20531;-69
2023/03/19 01:40:23;;;;;;;11.85;5.90;;;;;;;6.76;100.00;95496.34;1010367;29;20029;-69
2023/03/19 01:40:54;;;;;;;13.40;6.45;;;;;;;6.82;100.00;95490.16;1009540;29;20048;-70
2023/03/19 01:41:24;;;;;;;11.32;6.55;;;;;;;6.89;100.00;95493.34;1010695;29;20472;-71
2023/03/19 01:41:55;;;;;;;11.23;6.18;;;;;;;6.91;100.00;95493.09;1014719;29;20088;-69
2023/03/19 01:42:25;;;;;;;15.63;7.43;;;;;;;6.93;100.00;95491.03;1023809;28;20019;-70
2023/03/19 01:43:34;;;;;;;14.10;6.55;;;;;;;6.96;100.00;95498.38;1026364;28;20062;-70
2023/03/19 01:44:25;;;;;;;12.02;6.95;;;;;;;6.83;100.00;95484.69;1007301;29;20051;-69
2023/03/19 01:44:55;;;;;;;15.45;7.45;;;;;;;6.85;100.00;95489.66;1014598;29;21164;-70
2023/03/19 01:45:45;;;;;;;14.48;7.40;;;;;;;6.79;100.00;95496.63;1006814;29;20273;-70
2023/03/19 01:46:27;;;;;;;10.50;6.20;;;;;;;6.73;100.00;95496.81;1002117;29;20033;-71
2023/03/19 01:46:58;;;;;;;15.55;7.40;;;;;;;6.59;100.00;95486.75;999115;29;20286;-70
2023/03/19 01:47:31;;;;;;;14.25;7.72;;;;;;;6.59;100.00;95491.19;1001974;29;20278;-70
2023/03/19 01:48:01;;;;;;;12.43;7.50;;;;;;;6.61;100.00;95494.34;1002003;29;20432;-71
2023/03/19 01:48:58;;;;;;;12.95;7.03;;;;;;;6.58;100.00;95507.88;1001980;29;20428;-70
2023/03/19 01:49:29;;;;;;;12.70;7.47;;;;;;;6.55;100.00;95501.31;998432;29;20492;-69
2023/03/19 01:49:59;;;;;;;12.82;6.78;;;;;;;6.53;100.00;95505.97;1002095;29;20284;-69
2023/03/19 01:50:38;;;;;;;17.85;7.82;;;;;;;6.49;100.00;95502.28;1010299;29;20021;-70
2023/03/19 01:51:10;;;;;;;12.10;6.57;;;;;;;6.41;100.00;95501.94;1011531;29;20059;-69
2023/03/19 01:51:41;;;;;;;15.32;7.18;;;;;;;6.32;100.00;95501.53;1011469;29;20381;-70
2023/03/19 01:52:12;;;;;;;14.43;7.20;;;;;;;6.28;100.00;95503.84;1014218;29;20268;-70
2023/03/19 01:52:42;;;;;;;13.52;7.30;;;;;;;6.28;100.00;95503.84;1013648;29;20279;-71
2023/03/19 01:53:13;;;;;;;14.27;7.32;;;;;;;6.23;100.00;95498.56;1014527;29;20017;-69
2023/03/19 01:53:46;;;;;;;14.52;7.55;;;;;;;6.26;100.00;95499.91;1003275;29;20128;-70
2023/03/19 01:54:20;;;;;;;19.30;7.93;;;;;;;6.27;100.00;95502.28;1011032;29;20519;-70
2023/03/19 01:54:51;;;;;;;15.95;7.75;;;;;;;6.23;100.00;95500.38;1007092;29;20276;-72
2023/03/19 01:55:22;;;;;;;13.00;7.55;;;;;;;6.24;100.00;95494.94;1015862;29;20264;-69
2023/03/19 01:55:55;;;;;;;16.38;7.65;;;;;;;6.19;100.00;95492.25;1016051;29;20268;-69
2023/03/19 01:56:32;;;;;;;15.95;8.00;;;;;;;6.24;100.00;95494.94;1014803;29;20051;-69
2023/03/19 01:57:05;;;;;;;13.60;6.93;;;;;;;6.29;100.00;95489.78;1010401;29;20273;-69
2023/03/19 01:57:36;;;;;;;14.57;7.32;;;;;;;6.21;100.00;95484.22;1018311;29;20274;-70
2023/03/19 01:58:06;;;;;;;14.60;7.78;;;;;;;6.29;100.00;95497.59;1018551;29;20267;-71
2023/03/19 01:58:38;;;;;;;15.25;7.70;;;;;;;6.27;100.00;95491.84;1006437;29;20455;-69
2023/03/19 01:59:20;;;;;;;12.35;7.57;;;;;;;6.29;100.00;95497.59;1011003;29;20124;-70
2023/03/19 01:59:52;;;;;;;14.82;8.02;;;;;;;6.26;100.00;95492.09;1014469;29;20348;-70
2023/03/19 02:00:23;;;;;;;12.10;6.85;;;;;;;6.32;100.00;95496.34;1010545;29;20269;-70
2023/03/19 02:00:53;;;;;;;12.68;7.20;;;;;;;6.30;100.00;95486.13;1011499;29;20289;-70
2023/03/19 02:01:25;;;;;;;13.43;7.25;;;;;;;6.28;100.00;95496.03;1010584;29;20044;-70
2023/03/19 02:02:12;;;;;;;11.75;8.00;;;;;;;6.28;100.00;95488.22;1017236;29;20027;-69
2023/03/19 02:02:45;;;;;;;17.33;7.82;;;;;;;6.27;100.00;95488.44;1017407;29;21231;-70
2023/03/19 02:03:15;;;;;;;11.65;7.18;;;;;;;6.27;100.00;95489.25;1022263;29;20865;-70
2023/03/19 02:03:46;;;;;;;14.82;7.18;;;;;;;6.24;100.00;95488.94;1019480;29;20356;-71
2023/03/19 02:04:16;;;;;;;11.65;6.93;;;;;;;6.26;100.00;95495.47;1020175;29;20035;-70
2023/03/19 02:04:48;;;;;;;12.68;7.00;;;;;;;6.27;100.00;95496.25;1020349;28;20020;-70
2023/03/19 02:05:24;;;;;;;11.00;6.88;;;;;;;6.22;100.00;95486.56;1022385;29;20023;-69
2023/03/19 02:05:55;;;;;;;15.20;7.43;;;;;;;6.27;100.00;95494.47;1014184;29;20272;-70
2023/03/19 02:06:27;;;;;;;19.35;7.30;;;;;;;6.30;100.00;95499.16;1018305;29;20309;-69
2023/03/19 02:06:57;;;;;;;12.70;7.47;;;;;;;6.28;100.00;95487.44;1022108;29;20872;-70
2023/03/19 02:07:29;;;;;;;13.40;7.30;;;;;;;6.24;100.00;95479.31;1022176;29;20362;-70
2023/03/19 02:08:02;;;;;;;11.27;6.68;;;;;;;6.09;100.00;95455.66;1018178;29;20024;-70
2023/03/19 02:08:32;;;;;;;11.95;7.32;;;;;;;6.22;100.00;95477.97;1026127;28;20321;-70
2023/03/19 02:09:03;;;;;;;12.50;7.40;;;;;;;6.30;100.00;95491.34;1025981;28;20273;-72
2023/03/19 02:09:34;;;;;;;14.63;7.60;;;;;;;6.25;100.00;95483.50;1022048;29;20027;-69
2023/03/19 02:10:07;;;;;;;18.75;7.55;;;;;;;6.22;100.00;95476.16;1022229;29;20034;-69
2023/03/19 02:10:37;;;;;;;14.55;7.47;;;;;;;6.29;100.00;95489.78;1022207;28;20058;-71
2023/03/19 02:11:08;;;;;;;11.43;6.93;;;;;;;6.32;100.00;95486.69;1014094;29;20271;-70
2023/03/19 02:11:39;;;;;;;18.00;7.38;;;;;;;6.34;100.00;95495.06;1014195;29;20107;-70
2023/03/19 02:12:09;;;;;;;12.93;7.55;;;;;;;6.34;100.00;95489.88;1018147;29;20786;-71
2023/03/19 02:12:40;;;;;;;16.80;6.53;;;;;;;6.30;100.00;95487.97;1017643;29;20083;-70
2023/03/19 02:13:11;;;;;;;15.18;7.00;;;;;;;6.29;100.00;95487.19;1018201;29;20553;-70
2023/03/19 02:13:41;;;;;;;12.85;6.47;;;;;;;6.30;100.00;95490.56;1018046;29;20024;-71
2023/03/19 02:14:12;;;;;;;11.60;7.20;;;;;;;6.31;100.00;95495.56;1008486;29;20036;-70
2023/03/19 02:14:42;;;;;;;11.90;7.10;;;;;;;6.31;100.00;95490.34;1014408;29;20020;-69
2023/03/19 02:15:13;;;;;;;15.00;7.18;;;;;;;6.32;100.00;95491.91;1014272;29;20466;-70
2023/03/19 02:15:43;;;;;;;13.98;7.70;;;;;;;6.36;100.00;95487.78;1017203;29;20028;-70
2023/03/19 02:16:14;;;;;;;15.65;7.50;;;;;;;6.28;100.00;95477.78;1011640;29;20435;-70
2023/03/19 02:16:45;;;;;;;16.50;7.63;;;;;;;6.34;100.00;95486.47;1018099;29;20020;-69
2023/03/19 02:17:16;;;;;;;15.02;7.65;;;;;;;6.33;100.00;95493.47;1018352;29;20323;-70
2023/03/19 02:17:46;;;;;;;19.83;7.43;;;;;;;6.32;100.00;95491.13;1016100;29;20257;-70
2023/03/19 02:18:17;;;;;;;12.00;7.30;;;;;;;6.33;100.00;95488.25;1014289;29;20023;-69
2023/03/19 02:18:47;;;;;;;12.70;7.38;;;;;;;6.38;100.00;95495.38;1022154;29;20413;-70
2023/03/19 02:19:24;;;;;;;12.60;6.75;;;;;;;6.21;100.00;95464.16;1016013;29;20399;-69
2023/03/19 02:20:07;;;;;;;15.57;7.30;;;;;;;6.40;100.00;95497.72;1016917;29;20059;-69
2023/03/19 02:20:46;;;;;;;16.42;7.50;;;;;;;6.42;100.00;95495.69;1026051;28;20735;-69
2023/03/19 02:21:16;;;;;;;12.23;7.32;;;;;;;6.42;100.00;95495.69;1018343;29;20814;-70
2023/03/19 02:21:47;;;;;;;12.80;7.25;;;;;;;6.35;100.00;95486.22;1012838;29;20338;-69
2023/03/19 02:22:20;;;;;;;14.25;7.57;;;;;;;6.44;100.00;95493.59;1015654;29;20024;-68
2023/03/19 02:23:11;;;;;;;13.57;7.07;;;;;;;6.41;100.00;95489.69;1019439;29;20024;-70
2023/03/19 02:23:52;;;;;;;;;;;;;;;6.41;100.00;95499.31;1022577;29;20890;-69
2023/03/19 02:24:31;;;;;;;12.82;7.53;;;;;;;6.25;100.00;95470.47;1011262;29;19907;-69
2023/03/19 02:25:10;;;;;;;14.25;7.82;;;;;;;6.38;100.00;95498.75;1018868;29;20271;-69
2023/03/19 02:25:46;;;;;;;12.77;7.50;;;;;;;6.40;100.00;95502.94;1022833;29;20739;-69
2023/03/19 02:26:26;;;;;;;12.90;8.45;;;;;;;6.39;100.00;95496.94;1022620;29;20285;-69
2023/03/19 02:26:56;;;;;;;14.05;7.53;;;;;;;6.39;100.00;95496.94;1016431;29;20351;-70
2023/03/19 02:27:27;;;;;;;14.55;7.78;;;;;;;6.41;100.00;95501.94;1019181;29;20027;-69
2023/03/19 02:27:58;;;;;;;17.90;8.93;;;;;;;6.40;100.00;95498.50;1015134;29;20024;-69